KIPT/IPT METAR and TAF weather

Enter ICAO airport designator
Station Type Date Time Source
KIPT METAR 2021/03/06 00:54 UTC NOAA

KIPT 060054Z 29014G18KT 10SM BKN055 00/M12 A2998 RMK AO2 SLP159 T00001117


Station Type Date Time Source
KIPT Decoded METAR 2021/03/06 00:54 UTC NOAA

WILLIAMSPORT-LYCOMING COUNTY, PA, United States (KIPT) 41-15N 076-55W 164M
Mar 05, 2021 - 07:54 PM EST / 2021.03.06 0054 UTC
Wind: from the WNW (290 degrees) at 16 MPH (14 KT) gusting to 21 MPH (18 KT):0
Visibility: 10 mile(s):0
Sky conditions: mostly cloudy
Temperature: 32.0 F (0.0 C)
Windchill: 21 F (-6 C):1
Dew Point: 10.9 F (-11.7 C)
Relative Humidity: 40%
Pressure (altimeter): 29.98 in. Hg (1015 hPa)
ob: KIPT 060054Z 29014G18KT 10SM BKN055 00/M12 A2998 RMK AO2 SLP159 T00001117
cycle: 1

Station Type Date Time Source
KIPT TAF 2021/03/05 21:33 UTC NOAA

TAF
AMD KIPT 052129Z 0521/0618 29016G25KT P6SM SKC
FM060000 28013KT P6SM SKC
FM060400 29009KT P6SM BKN035
FM061500 29012G22KT P6SM BKN050

Example: see airport list